Terminal Aerodrome Forecast
Issued by NWS

Home | Current Version | Previous Version | Graphics & Text | Print | Product List | Glossary On
Versions: 1 2 3 4 5 6 7 8 9 10 11 12 13 14 15 16 17 18 19 20
000
FTUS43 KICT 181731
TAFRSL
TAF
KRSL 181731Z 1818/1918 19031G41KT P6SM BKN250
     FM190100 18017G25KT P6SM SCT250
     FM190300 19017G24KT P6SM SCT250 WS020/21045KT
     FM190800 26017G25KT P6SM SCT250
     FM191200 35015G23KT P6SM SCT045=

USA.gov is the U.S. government's official web portal to all federal, state and local government web resources and services.